Nearby METAR Reports

METAR is the scheduled surface weather observation taken hourly at civil and military airport locations.

METAR is an acronym from the French language and roughly translates as Aviation Routine Weather Report.

 

EGPL - Benbecula Island, United Kingdom
Distance from station: WNW 41mi, 66km
Updated: 29/11/2020 01:50
Mostly cloudy
Mostly cloudy
 Wind from S
Wind: S 5 mph , 7 km/h
Temperature: 4°C
Wind Chill: 2°C
Dew Point: 3°C
Humidity: 93%
Barometer: 1023 hPa
Clouds: Mostly cloudy
Visibility: 6 miles , 10 km
Cloud details: Mostly cloudy 732 m
2020/11/29 01:50 EGPL 290150Z AUTO 17004KT 9999 BKN024/// 04/03 Q1023
EGPU - Tiree Island, United Kingdom
Distance from station: SSW 56mi, 90km
Updated: 29/11/2020 01:50
Mostly cloudy
Mostly cloudy
 Wind from S
Wind: S 15 mph , 24 km/h
Temperature: 9°C
Wind Chill: 6°C
Dew Point: 7°C
Humidity: 87%
Barometer: 1023 hPa
Clouds: Mostly cloudy
Visibility: 6 miles , 10 km
Cloud details: Partly cloudy 427 m
Mostly cloudy 640 m
2020/11/29 01:50 EGPU 290150Z AUTO 17013KT 9999 SCT014/// BKN021/// 09/07 Q1023
 
EGEO - Oban Airport, United Kingdom
Distance from station: SE 65mi, 105km
Updated: 28/11/2020 13:50
NOT Current
Few Clouds
Few Clouds
 Wind from E
Wind: E 5 mph , 7 km/h
Temperature: 8°C
Wind Chill: 7°C
Dew Point: 4°C
Humidity: 76%
Barometer: 1021 hPa
Clouds: Few Clouds
Visibility: 6 miles , 10 km
Cloud details: Few Clouds 732 m
2020/11/28 13:50 EGEO 281350Z 10004KT 9999 FEW024 08/04 Q1021
EGPO - Stornoway, United Kingdom
Distance from station: 0 66mi, 106km
Updated: 29/11/2020 01:50
Overcast
Overcast
 Wind from SW
Wind: SW 7 mph , 11 km/h
Temperature: 6°C
Wind Chill: 4°C
Dew Point: 4°C
Humidity: 87%
Barometer: 1023 hPa
Clouds: Overcast
Visibility: 6 miles , 10 km
Cloud details: Overcast 1280 m
2020/11/29 01:50 EGPO 290150Z AUTO 23006KT 9999 OVC042/// 06/04 Q1023
 
EGPE - Inverness/Dalcro, United Kingdom
Distance from station: ENE 88mi, 141km
Updated: 29/11/2020 01:50
Clear
Clear
 Wind from S
Wind: S 2 mph , 4 km/h
Temperature: -1°C
Dew Point: -2°C
Humidity: 93%
Barometer: 1024 hPa
Clouds: Clear
Visibility: 6 miles , 10 km
2020/11/29 01:50 EGPE 290150Z AUTO 18002KT 9999 NCD M01/M02 Q1024
EGQA - Tain Range (saws, United Kingdom
Distance from station: ENE 97mi, 156km
Updated: 27/11/2020 10:50
NOT Current
Light rain, Drizzle, Mostly cloudy
Light rain, Drizzle, Mostly cloudy
 Wind from calm
Wind: Calm
Summary: Light rain, Drizzle
Clouds: Mostly cloudy
Visibility: 6 miles , 10 km
Cloud details: Mostly cloudy 610 m
2020/11/27 10:50 EGQA 271050Z 00000KT 9999 7000SW -RADZ BKN020 07/// Q1018 RMK WHT
 
EGQK - Kinloss Raf, United Kingdom
Distance from station: ENE 107mi, 171km
Updated: 26/11/2020 15:50
NOT Current
Mostly cloudy
Mostly cloudy
 Wind from SSW
Wind: SSW 6 mph , 9 km/h
Temperature: 6°C
Wind Chill: 4°C
Dew Point: 3°C
Humidity: 81%
Barometer: 1017 hPa
Clouds: Mostly cloudy
Visibility: 6 miles , 10 km
Cloud details: Mostly cloudy 1036 m
2020/11/26 15:50 EGQK 261550Z AUTO 20005KT 9999 BKN034/// 06/03 Q1017
EGPI - Islay/Port Ellen, United Kingdom
Distance from station: S 110mi, 177km
Updated: 29/11/2020 01:50
Few Clouds
Few Clouds
 Wind from E
Wind: E 12 mph , 19 km/h
Temperature: 6°C
Wind Chill: 3°C
Dew Point: 4°C
Humidity: 87%
Barometer: 1024 hPa
Clouds: Few Clouds
Visibility: 6 miles , 10 km
Cloud details: Few Clouds 640 m
2020/11/29 01:50 EGPI 290150Z AUTO 08010KT 360V110 9999 FEW021/// 06/04 Q1024
 
EGQS - Lossiemouth Raf, United Kingdom
Distance from station: ENE 117mi, 188km
Updated: 29/11/2020 01:50
Clear
Clear
 Wind from SE
Wind: SE 5 mph , 7 km/h
Temperature: 0°C
Wind Chill: -3°C
Dew Point: 0°C
Humidity: 100%
Barometer: 1024 hPa
Summary: Clear
Visibility: greater than 7 miles , 10 km
2020/11/29 01:50 EGQS 290150Z 13004KT CAVOK 00/M00 Q1024 RMK BLU
EGPF - Glasgow Airport, United Kingdom
Distance from station: SE 121mi, 195km
Updated: 29/11/2020 01:50
Clear
Clear
 Wind from SE
Wind: SE 3 mph , 6 km/h
Temperature: 0°C
Dew Point: 0°C
Humidity: 100%
Barometer: 1025 hPa
Clouds: Clear
Visibility: 4 miles , 6 km
2020/11/29 01:50 EGPF 290150Z AUTO 13003KT 6000 NCD 00/M00 Q1025
 
EGEC - Campbeltown, United Kingdom
Distance from station: SSE 129mi, 207km
Updated: 29/11/2020 01:50
Few Clouds
Few Clouds
 Wind from varies
Wind: varies 3 mph , 6 km/h
Temperature: 4°C
Dew Point: 3°C
Humidity: 93%
Barometer: 1024 hPa
Clouds: Few Clouds
Visibility: 6 miles , 10 km
Cloud details: Few Clouds 914 m
2020/11/29 01:50 EGEC 290150Z VRB03KT 9999 FEW030 04/03 Q1024
EGPN - Dundee/Riverside, United Kingdom
Distance from station: ESE 137mi, 221km
Updated: 28/11/2020 15:50
NOT Current
Clear
Clear
 Wind from calm
Wind: Calm
Temperature: 4°C
Dew Point: 2°C
Humidity: 87%
Barometer: 1023 hPa
Summary: Clear
Visibility: greater than 7 miles , 10 km
2020/11/28 15:50 EGPN 281550Z 00000KT CAVOK 04/02 Q1023
 
EGPK - Prestwick(Civ/Na, United Kingdom
Distance from station: SSE 139mi, 224km
Updated: 29/11/2020 01:50
Few Clouds
Few Clouds
 Wind from calm
Wind: Calm
Temperature: 2°C
Dew Point: 1°C
Humidity: 93%
Barometer: 1025 hPa
Clouds: Few Clouds
Visibility: 6 miles , 10 km
Cloud details: Few Clouds 945 m
2020/11/29 01:50 EGPK 290150Z 00000KT 9999 FEW031 02/01 Q1025
EGQL - Leuchars Raf, United Kingdom
Distance from station: ESE 145mi, 233km
Updated: 29/11/2020 01:50
Mist, Overcast
Mist, Overcast
 Wind from W
Wind: W 5 mph , 7 km/h
Temperature: 0°C
Wind Chill: -3°C
Dew Point: 0°C
Humidity: 100%
Barometer: 1026 hPa
Summary: Mist
Clouds: Overcast
Visibility: 3 miles , 4 km
Cloud details: Mostly cloudy 30 m
Overcast 975 m
2020/11/29 01:50 EGQL 290150Z 28004KT 4200 BR BKN001 OVC032 00/00 Q1026 RMK RED
 
EGPH - Edinburgh Airpor, United Kingdom
Distance from station: SE 145mi, 234km
Updated: 29/11/2020 01:50
Mist, Few clouds
Mist, Few clouds
 Wind from varies
Wind: varies 1 mph , 2 km/h
Temperature: -2°C
Dew Point: -3°C
Humidity: 93%
Barometer: 1025 hPa
Summary: Mist
Clouds: Few Clouds
Visibility: 3 miles , 5 km
Cloud details: Few Clouds 122 m
2020/11/29 01:50 EGPH 290150Z VRB01KT 5000 BR FEW004 M02/M03 Q1025
EGPC - Wick, United Kingdom
Distance from station: NE 146mi, 234km
Updated: 29/11/2020 01:50
Clear
Clear
 Wind from SSW
Wind: SSW 5 mph , 7 km/h
Temperature: 4°C
Wind Chill: 2°C
Dew Point: 4°C
Humidity: 100%
Barometer: 1023 hPa
Clouds: Clear
Visibility: 6 miles , 10 km
2020/11/29 01:50 EGPC 290150Z AUTO 20004KT 9999 NCD 04/04 Q1023

-

free counters
QR Code Twitter Scottish Weather Network UK Weather Network
Argyll House B & B

Argyll House B & B is situated in North West Skye and is the perfect base to see all that the Isle of Skye has to offer. Bookings are been taken for 2021